OETRU EDDL-ZZZZ
Flight info
| Callsign | OETRU |
|---|---|
| Flight time | N/A |
| Altitude | |
| Route | |
| Aircraft | DA42 |
Departure
| Time | 2026-05-05 19:57 |
|---|---|
| Airport | Düsseldorf Airport (EDDL) |
Arrival
| Time | N/A |
|---|---|
| Airport | ZZZZ |
| Time | Latitude | Longitude | Altitude | Speed | Heading |
|---|---|---|---|---|---|
| 2026-05-05 19:44 | 51.27392 | 6.75337 | 117 ft | 0 kts | 257° |
| 2026-05-05 19:44 | 51.27412 | 6.75324 | 115 ft | 11 kts | 351° |
| 2026-05-05 19:45 | 51.27483 | 6.75272 | 117 ft | 15 kts | 291° |
| 2026-05-05 19:45 | 51.27564 | 6.75198 | 114 ft | 13 kts | 349° |
| 2026-05-05 19:45 | 51.27620 | 6.75185 | 115 ft | 13 kts | 353° |
| 2026-05-05 19:45 | 51.27693 | 6.75192 | 115 ft | 10 kts | 7° |
| 2026-05-05 19:46 | 51.27770 | 6.75264 | 118 ft | 18 kts | 52° |
| 2026-05-05 19:46 | 51.27853 | 6.75339 | 119 ft | 8 kts | 335° |
| 2026-05-05 19:46 | 51.27879 | 6.75319 | 117 ft | 0 kts | 334° |
| 2026-05-05 19:51 | 51.27888 | 6.75312 | 119 ft | 7 kts | 335° |
| 2026-05-05 19:51 | 51.27898 | 6.75304 | 119 ft | 0 kts | 333° |
| 2026-05-05 19:54 | 51.27915 | 6.75288 | 117 ft | 14 kts | 334° |
| 2026-05-05 19:54 | 51.28010 | 6.75303 | 119 ft | 0 kts | 50° |
| 2026-05-05 19:56 | 51.28011 | 6.75306 | 119 ft | 6 kts | 50° |
| 2026-05-05 19:56 | 51.28179 | 6.75658 | 121 ft | 69 kts | 53° |
| 2026-05-05 19:56 | 51.28530 | 6.76394 | 164 ft | 95 kts | 48° |
| 2026-05-05 19:57 | 51.28949 | 6.77299 | 442 ft | 101 kts | 49° |
| 2026-05-05 19:57 | 51.29359 | 6.78175 | 927 ft | 94 kts | 45° |
| 2026-05-05 19:57 | 51.29262 | 6.79231 | 1091 ft | 131 kts | 121° |
| 2026-05-05 19:57 | 51.28624 | 6.80413 | 1212 ft | 151 kts | 135° |
| 2026-05-05 19:58 | 51.27794 | 6.81484 | 1361 ft | 158 kts | 135° |
| 2026-05-05 19:58 | 51.26921 | 6.82635 | 1369 ft | 168 kts | 138° |
| 2026-05-05 19:58 | 51.25941 | 6.83779 | 1337 ft | 175 kts | 139° |
| 2026-05-05 19:58 | 51.24940 | 6.84892 | 1368 ft | 175 kts | 141° |
| 2026-05-05 19:59 | 51.23973 | 6.86015 | 1596 ft | 158 kts | 137° |
| 2026-05-05 19:59 | 51.23139 | 6.86951 | 2025 ft | 148 kts | 140° |
| 2026-05-05 19:59 | 51.22276 | 6.87978 | 2019 ft | 160 kts | 136° |
| 2026-05-05 19:59 | 51.21391 | 6.89125 | 2019 ft | 167 kts | 136° |
| 2026-05-05 20:00 | 51.20486 | 6.90312 | 2012 ft | 170 kts | 136° |
| 2026-05-05 20:00 | 51.19569 | 6.91513 | 2011 ft | 172 kts | 136° |
| 2026-05-05 20:00 | 51.18644 | 6.92723 | 2009 ft | 173 kts | 136° |
| 2026-05-05 20:00 | 51.17710 | 6.93944 | 2013 ft | 174 kts | 135° |
| 2026-05-05 20:01 | 51.16788 | 6.95192 | 2013 ft | 174 kts | 135° |
| 2026-05-05 20:01 | 51.15860 | 6.96438 | 2010 ft | 174 kts | 129° |
| 2026-05-05 20:01 | 51.15351 | 6.98095 | 2009 ft | 166 kts | 94° |
| 2026-05-05 20:01 | 51.15603 | 6.99827 | 1997 ft | 160 kts | 53° |
| 2026-05-05 20:02 | 51.16483 | 7.00879 | 2022 ft | 159 kts | 28° |
| 2026-05-05 20:02 | 51.17430 | 7.01774 | 2009 ft | 159 kts | 38° |
| 2026-05-05 20:02 | 51.18240 | 7.02963 | 2008 ft | 158 kts | 45° |
| 2026-05-05 20:02 | 51.18981 | 7.04244 | 2009 ft | 159 kts | 49° |
| 2026-05-05 20:03 | 51.19742 | 7.05565 | 2011 ft | 161 kts | 45° |
| 2026-05-05 20:03 | 51.20519 | 7.06843 | 1982 ft | 160 kts | 47° |
| 2026-05-05 20:03 | 51.21263 | 7.08168 | 1977 ft | 164 kts | 47° |
| 2026-05-05 20:03 | 51.22044 | 7.09496 | 1966 ft | 163 kts | 47° |
| 2026-05-05 20:04 | 51.22770 | 7.10723 | 1977 ft | 142 kts | 47° |
| 2026-05-05 20:04 | 51.23385 | 7.11779 | 1987 ft | 123 kts | 46° |
| 2026-05-05 20:04 | 51.23928 | 7.12725 | 1993 ft | 108 kts | 48° |
| 2026-05-05 20:04 | 51.24426 | 7.13600 | 1966 ft | 100 kts | 48° |
| 2026-05-05 20:05 | 51.24901 | 7.14374 | 1966 ft | 100 kts | 45° |
| 2026-05-05 20:05 | 51.25357 | 7.15193 | 2005 ft | 93 kts | 48° |
| 2026-05-05 20:05 | 51.25834 | 7.16011 | 1981 ft | 105 kts | 45° |
| 2026-05-05 20:05 | 51.26342 | 7.16872 | 1958 ft | 111 kts | 47° |
| 2026-05-05 20:06 | 51.26858 | 7.17776 | 1998 ft | 112 kts | 48° |
| 2026-05-05 20:06 | 51.27389 | 7.18700 | 1991 ft | 114 kts | 45° |
| 2026-05-05 20:06 | 51.27930 | 7.19646 | 1983 ft | 116 kts | 47° |
| 2026-05-05 20:06 | 51.28488 | 7.20584 | 1981 ft | 116 kts | 45° |
| 2026-05-05 20:07 | 51.29031 | 7.21566 | 1975 ft | 122 kts | 49° |
| 2026-05-05 20:07 | 51.29603 | 7.22547 | 1994 ft | 116 kts | 47° |
| 2026-05-05 20:07 | 51.30167 | 7.23394 | 1976 ft | 111 kts | 52° |
| 2026-05-05 20:07 | 51.30695 | 7.24384 | 1983 ft | 123 kts | 49° |
| 2026-05-05 20:08 | 51.31294 | 7.25437 | 1813 ft | 141 kts | 42° |
| 2026-05-05 20:08 | 51.31950 | 7.26532 | 1967 ft | 132 kts | 46° |
| 2026-05-05 20:08 | 51.32589 | 7.27610 | 2028 ft | 134 kts | 48° |
| 2026-05-05 20:08 | 51.33252 | 7.28737 | 1948 ft | 142 kts | 48° |
| 2026-05-05 20:09 | 51.33909 | 7.29910 | 1976 ft | 141 kts | 50° |
| 2026-05-05 20:09 | 51.34563 | 7.31092 | 1950 ft | 143 kts | 57° |
| 2026-05-05 20:09 | 51.35054 | 7.32445 | 1979 ft | 141 kts | 62° |
| 2026-05-05 20:09 | 51.35491 | 7.33847 | 1972 ft | 140 kts | 63° |
| 2026-05-05 20:10 | 51.35929 | 7.35216 | 1972 ft | 137 kts | 64° |
| 2026-05-05 20:10 | 51.36313 | 7.36628 | 1993 ft | 139 kts | 65° |
| 2026-05-05 20:10 | 51.36740 | 7.38044 | 1965 ft | 142 kts | 63° |
| 2026-05-05 20:10 | 51.37178 | 7.39451 | 1962 ft | 141 kts | 63° |
| 2026-05-05 20:11 | 51.37603 | 7.40852 | 1971 ft | 139 kts | 64° |
| 2026-05-05 20:11 | 51.38023 | 7.42235 | 1960 ft | 138 kts | 64° |
| 2026-05-05 20:11 | 51.38444 | 7.43605 | 1964 ft | 137 kts | 63° |
| 2026-05-05 20:11 | 51.38861 | 7.44975 | 1961 ft | 137 kts | 63° |
| 2026-05-05 20:12 | 51.39272 | 7.46340 | 1973 ft | 136 kts | 63° |
| 2026-05-05 20:12 | 51.39686 | 7.47710 | 1973 ft | 137 kts | 64° |
| 2026-05-05 20:12 | 51.40113 | 7.49087 | 1970 ft | 139 kts | 63° |
| 2026-05-05 20:12 | 51.40547 | 7.50472 | 1966 ft | 139 kts | 62° |
| 2026-05-05 20:13 | 51.40968 | 7.51838 | 1968 ft | 133 kts | 63° |
| 2026-05-05 20:13 | 51.41358 | 7.53135 | 1956 ft | 126 kts | 63° |
| 2026-05-05 20:13 | 51.41736 | 7.54358 | 1963 ft | 120 kts | 63° |
| 2026-05-05 20:13 | 51.42091 | 7.55539 | 1959 ft | 116 kts | 63° |
| 2026-05-05 20:14 | 51.42432 | 7.56700 | 1967 ft | 115 kts | 63° |
| 2026-05-05 20:14 | 51.42766 | 7.57860 | 1961 ft | 114 kts | 63° |
| 2026-05-05 20:14 | 51.43097 | 7.59000 | 1961 ft | 112 kts | 64° |
| 2026-05-05 20:14 | 51.43434 | 7.60114 | 1965 ft | 110 kts | 63° |
| 2026-05-05 20:15 | 51.43768 | 7.61217 | 1967 ft | 110 kts | 63° |
| 2026-05-05 20:15 | 51.44137 | 7.62276 | 1948 ft | 109 kts | 44° |
| 2026-05-05 20:15 | 51.44833 | 7.62668 | 1969 ft | 111 kts | 0° |
| 2026-05-05 20:15 | 51.45595 | 7.62485 | 1975 ft | 111 kts | 354° |
| 2026-05-05 20:16 | 51.46351 | 7.62251 | 1979 ft | 111 kts | 354° |
| 2026-05-05 20:16 | 51.47117 | 7.62021 | 1973 ft | 112 kts | 354° |
| 2026-05-05 20:16 | 51.47882 | 7.61787 | 1976 ft | 112 kts | 354° |
| 2026-05-05 20:16 | 51.48648 | 7.61539 | 1976 ft | 112 kts | 354° |
| 2026-05-05 20:17 | 51.49417 | 7.61465 | 1972 ft | 110 kts | 20° |
| 2026-05-05 20:17 | 51.49978 | 7.62240 | 1979 ft | 109 kts | 59° |
| 2026-05-05 20:17 | 51.50316 | 7.63321 | 1977 ft | 109 kts | 63° |
| 2026-05-05 20:17 | 51.50645 | 7.64416 | 1979 ft | 109 kts | 63° |
| 2026-05-05 20:18 | 51.50973 | 7.65539 | 1976 ft | 115 kts | 63° |
| 2026-05-05 20:18 | 51.51492 | 7.66754 | 1733 ft | 150 kts | 32° |
| 2026-05-05 20:18 | 51.52618 | 7.66820 | 1138 ft | 183 kts | 344° |
| 2026-05-05 20:18 | 51.53441 | 7.65497 | 1202 ft | 149 kts | 285° |
| 2026-05-05 20:19 | 51.53078 | 7.64366 | 1154 ft | 100 kts | 231° |
| 2026-05-05 20:19 | 51.52661 | 7.63527 | 834 ft | 96 kts | 240° |
| 2026-05-05 20:19 | 51.52341 | 7.62662 | 540 ft | 88 kts | 243° |
| 2026-05-05 20:19 | 51.52042 | 7.61816 | 411 ft | 70 kts | 242° |
| 2026-05-05 20:20 | 51.51760 | 7.61002 | 423 ft | 101 kts | 241° |
| 2026-05-05 20:20 | 51.51347 | 7.59883 | 525 ft | 127 kts | 239° |
| 2026-05-05 20:20 | 51.50871 | 7.58780 | 970 ft | 123 kts | 221° |
| 2026-05-05 20:20 | 51.50103 | 7.58734 | 1341 ft | 122 kts | 137° |
| 2026-05-05 20:21 | 51.50007 | 7.59933 | 1641 ft | 118 kts | 65° |
| 2026-05-05 20:21 | 51.50376 | 7.61212 | 1735 ft | 134 kts | 58° |
| 2026-05-05 20:21 | 51.50880 | 7.62560 | 1692 ft | 150 kts | 59° |
| 2026-05-05 20:21 | 51.51445 | 7.64011 | 1746 ft | 153 kts | 52° |
| 2026-05-05 20:22 | 51.52146 | 7.65432 | 1441 ft | 170 kts | 30° |
| 2026-05-05 20:22 | 51.53044 | 7.64878 | 1257 ft | 188 kts | 271° |
| 2026-05-05 20:22 | 51.52568 | 7.63220 | 870 ft | 151 kts | 248° |
| 2026-05-05 20:22 | 51.52049 | 7.61869 | 510 ft | 135 kts | 240° |
| 2026-05-05 20:23 | 51.51485 | 7.60507 | 443 ft | 154 kts | 238° |
| 2026-05-05 20:23 | 51.51212 | 7.59160 | 1270 ft | 107 kts | 266° |
| 2026-05-05 20:23 | 51.51670 | 7.58325 | 1426 ft | 121 kts | 358° |
| 2026-05-05 20:23 | 51.52368 | 7.59049 | 1577 ft | 127 kts | 52° |
| 2026-05-05 20:24 | 51.52976 | 7.60227 | 1478 ft | 145 kts | 50° |
| 2026-05-05 20:24 | 51.53593 | 7.61544 | 1299 ft | 151 kts | 65° |
| 2026-05-05 20:24 | 51.53417 | 7.62968 | 1020 ft | 134 kts | 153° |
| 2026-05-05 20:24 | 51.52606 | 7.63270 | 621 ft | 105 kts | 209° |
| 2026-05-05 20:25 | 51.52241 | 7.62389 | 433 ft | 92 kts | 244° |
| 2026-05-05 20:25 | 51.51984 | 7.61649 | 412 ft | 58 kts | 241° |
| 2026-05-05 20:25 | 51.51820 | 7.61189 | 413 ft | 38 kts | 242° |
| 2026-05-05 20:25 | 51.51712 | 7.60876 | 412 ft | 28 kts | 241° |
| 2026-05-05 20:26 | 51.51628 | 7.60642 | 409 ft | 22 kts | 244° |
| 2026-05-05 20:26 | 51.51534 | 7.60653 | 409 ft | 14 kts | 123° |
| 2026-05-05 20:26 | 51.51533 | 7.60748 | 412 ft | 4 kts | 72° |
| 2026-05-05 20:26 | 51.51550 | 7.60837 | 417 ft | 22 kts | 71° |
| 2026-05-05 20:27 | 51.51479 | 7.61034 | 426 ft | 28 kts | 269° |
| 2026-05-05 20:27 | 51.51445 | 7.60849 | 429 ft | 24 kts | 238° |
| 2026-05-05 20:27 | 51.51291 | 7.60433 | 441 ft | 40 kts | 234° |
| 2026-05-05 20:27 | 51.51166 | 7.60159 | 441 ft | 3 kts | 291° |
| 2026-05-05 20:28 | 51.51211 | 7.60331 | 441 ft | 25 kts | 82° |
| 2026-05-05 20:28 | 51.51195 | 7.60415 | 437 ft | 0 kts | 103° |